Time;durP1;ratioP1;P1;durP2;ratioP2;P2;SDS_P1;SDS_P2;PMS_P1;PMS_P2;Temp;Humidity;BMP_temperature;BMP_pressure;BME280_temperature;BME280_humidity;BME280_pressure;Samples;Min_cycle;Max_cycle;Signal;HPM_P1;HPM_P2
2023/10/14 00:00:26;;;;;;;441.13;221.03;;;;;;;;;;5024579;28;20226;-70
2023/10/14 00:02:52;;;;;;;469.50;227.80;;;;;;;;;;5016480;28;20214;-70
2023/10/14 00:05:22;;;;;;;504.63;250.93;;;;;;;;;;5014811;28;21110;-70
2023/10/14 00:07:52;;;;;;;469.80;231.60;;;;;;;;;;5011487;28;20184;-70
2023/10/14 00:10:18;;;;;;;486.90;246.60;;;;;;;;;;5007085;28;20216;-70
2023/10/14 00:12:52;;;;;;;469.60;234.00;;;;;;;;;;5010053;28;20214;-70
2023/10/14 00:15:19;;;;;;;488.60;248.37;;;;;;;;;;5009650;28;20721;-70
2023/10/14 00:17:45;;;;;;;452.80;230.17;;;;;;;;;;5015157;28;20256;-70
2023/10/14 00:20:11;;;;;;;501.87;258.13;;;;;;;;;;5011591;28;20192;-70
2023/10/14 00:22:39;;;;;;;465.33;227.40;;;;;;;;;;5013862;28;20205;-70
2023/10/14 00:25:23;;;;;;;517.30;260.50;;;;;;;;;;5011403;28;20561;-70
2023/10/14 00:27:50;;;;;;;500.87;249.07;;;;;;;;;;5011083;28;20176;-70
2023/10/14 00:30:19;;;;;;;465.90;233.17;;;;;;;;;;5011512;28;20215;-70
2023/10/14 00:32:45;;;;;;;479.37;241.97;;;;;;;;;;5015325;28;20243;-69
2023/10/14 00:35:12;;;;;;;531.93;266.27;;;;;;;;;;5008616;28;20219;-70
2023/10/14 00:37:38;;;;;;;480.13;239.73;;;;;;;;;;5037816;28;20287;-70
2023/10/14 00:40:11;;;;;;;560.67;281.63;;;;;;;;;;5006834;28;20184;-70
2023/10/14 00:42:37;;;;;;;530.23;262.27;;;;;;;;;;5012588;28;20240;-70
2023/10/14 00:45:09;;;;;;;534.40;271.43;;;;;;;;;;5010556;28;20727;-70
2023/10/14 00:47:36;;;;;;;522.63;263.40;;;;;;;;;;5013961;28;20271;-70
2023/10/14 00:50:22;;;;;;;512.03;256.90;;;;;;;;;;5009199;28;20595;-70
2023/10/14 00:52:54;;;;;;;478.77;242.37;;;;;;;;;;5008965;28;20229;-70
2023/10/14 00:55:34;;;;;;;446.37;226.17;;;;;;;;;;5013091;28;20184;-70
2023/10/14 00:58:01;;;;;;;515.07;255.53;;;;;;;;;;5017606;28;20245;-70
2023/10/14 01:03:26;;;;;;;488.10;240.03;;;;;;;;;;4995814;28;20268;-70
2023/10/14 01:05:56;;;;;;;481.67;245.87;;;;;;;;;;5008874;28;20219;-69
2023/10/14 01:08:25;;;;;;;513.30;257.90;;;;;;;;;;5011606;28;20193;-70
2023/10/14 01:10:51;;;;;;;481.57;248.77;;;;;;;;;;5008256;28;20211;-70
2023/10/14 01:13:21;;;;;;;492.87;248.97;;;;;;;;;;5005954;28;20798;-70
2023/10/14 01:15:50;;;;;;;475.43;246.27;;;;;;;;;;5016590;28;20188;-70
2023/10/14 01:18:16;;;;;;;480.67;247.67;;;;;;;;;;5015109;28;20196;-70
2023/10/14 01:20:43;;;;;;;485.83;249.23;;;;;;;;;;5013589;28;20329;-70
2023/10/14 01:23:14;;;;;;;496.17;254.43;;;;;;;;;;5010408;28;20211;-70
2023/10/14 01:26:03;;;;;;;479.50;240.30;;;;;;;;;;5008280;28;20267;-70
2023/10/14 01:28:32;;;;;;;459.50;233.73;;;;;;;;;;5026201;28;20721;-70
2023/10/14 01:31:32;;;;;;;456.03;238.90;;;;;;;;;;5008541;28;20593;-70
2023/10/14 01:33:58;;;;;;;479.80;248.37;;;;;;;;;;5018464;28;20725;-69
2023/10/14 01:36:32;;;;;;;490.70;249.57;;;;;;;;;;5015855;28;20963;-70
2023/10/14 01:38:58;;;;;;;514.07;265.17;;;;;;;;;;5008190;28;20183;-70
2023/10/14 01:41:25;;;;;;;485.53;243.90;;;;;;;;;;5013652;28;20184;-70
2023/10/14 01:43:52;;;;;;;486.23;245.30;;;;;;;;;;5011618;28;20208;-69
2023/10/14 01:46:18;;;;;;;489.63;248.50;;;;;;;;;;5015704;28;20221;-69
2023/10/14 01:48:51;;;;;;;486.30;251.10;;;;;;;;;;5016383;28;20200;-69
2023/10/14 01:51:19;;;;;;;433.47;225.47;;;;;;;;;;5012215;28;20194;-70
2023/10/14 01:53:45;;;;;;;473.33;244.00;;;;;;;;;;5013477;28;20193;-70
2023/10/14 01:56:11;;;;;;;496.17;248.67;;;;;;;;;;5016335;28;20195;-69
2023/10/14 01:58:37;;;;;;;497.83;250.90;;;;;;;;;;5014451;28;20190;-70
2023/10/14 02:03:50;;;;;;;428.27;217.30;;;;;;;;;;5038461;22;20227;-48
2023/10/14 02:06:17;;;;;;;435.77;215.13;;;;;;;;;;5029754;28;20600;-45
2023/10/14 02:08:53;;;;;;;459.07;220.40;;;;;;;;;;5029282;28;20188;-47
2023/10/14 02:11:35;;;;;;;432.93;212.97;;;;;;;;;;5029553;28;20631;-47
2023/10/14 02:14:11;;;;;;;430.27;212.17;;;;;;;;;;5029418;28;20160;-47
2023/10/14 02:16:44;;;;;;;444.27;216.00;;;;;;;;;;5029266;28;20191;-47
2023/10/14 02:19:18;;;;;;;458.57;226.03;;;;;;;;;;5028942;28;20245;-47
2023/10/14 02:21:44;;;;;;;430.33;212.03;;;;;;;;;;5029201;28;20603;-46
2023/10/14 02:24:10;;;;;;;422.20;209.60;;;;;;;;;;5029002;28;20188;-47
2023/10/14 02:26:38;;;;;;;413.07;203.90;;;;;;;;;;5029965;28;20292;-47
2023/10/14 02:29:07;;;;;;;425.73;205.70;;;;;;;;;;5029164;28;20266;-46
2023/10/14 02:31:36;;;;;;;452.73;212.63;;;;;;;;;;5029422;28;20184;-47
2023/10/14 02:34:05;;;;;;;432.83;208.87;;;;;;;;;;5029068;28;20585;-47
2023/10/14 02:36:35;;;;;;;447.13;211.90;;;;;;;;;;5028991;28;20183;-47
2023/10/14 02:39:01;;;;;;;427.53;200.70;;;;;;;;;;5028771;28;20202;-47
2023/10/14 02:41:31;;;;;;;461.07;215.03;;;;;;;;;;5028632;28;20211;-47
2023/10/14 02:46:32;;;;;;;428.67;203.93;;;;;;;;;;5028739;28;20655;-46
2023/10/14 02:49:03;;;;;;;436.60;207.97;;;;;;;;;;5028607;28;20192;-46
2023/10/14 02:51:35;;;;;;;445.07;214.10;;;;;;;;;;5028309;28;20165;-46
2023/10/14 02:54:13;;;;;;;436.40;205.23;;;;;;;;;;5028357;28;20161;-46
2023/10/14 02:59:19;;;;;;;421.40;202.77;;;;;;;;;;5028782;28;20219;-46
2023/10/14 03:01:52;;;;;;;420.63;203.83;;;;;;;;;;5027773;28;20179;-47
2023/10/14 03:04:23;;;;;;;458.40;215.97;;;;;;;;;;5015102;28;20259;-47
2023/10/14 03:06:53;;;;;;;426.93;207.33;;;;;;;;;;5008625;28;20165;-47
2023/10/14 03:09:19;;;;;;;433.03;198.57;;;;;;;;;;5008439;28;20205;-46
2023/10/14 03:11:48;;;;;;;448.20;211.60;;;;;;;;;;5008183;28;20544;-46
2023/10/14 03:14:15;;;;;;;460.13;213.73;;;;;;;;;;5008203;28;20488;-47
2023/10/14 03:16:41;;;;;;;442.73;206.83;;;;;;;;;;5008469;28;20644;-47
2023/10/14 03:19:08;;;;;;;450.40;214.17;;;;;;;;;;5008002;28;20197;-47
2023/10/14 03:21:40;;;;;;;410.83;199.00;;;;;;;;;;5008560;28;20177;-47
2023/10/14 03:24:07;;;;;;;418.70;200.30;;;;;;;;;;5008514;28;20189;-47
2023/10/14 03:26:33;;;;;;;422.07;201.33;;;;;;;;;;5008342;28;20201;-47
2023/10/14 03:29:12;;;;;;;455.83;214.67;;;;;;;;;;5007619;28;20264;-47
2023/10/14 03:31:38;;;;;;;434.07;203.53;;;;;;;;;;5007945;28;20173;-47
2023/10/14 03:34:08;;;;;;;437.20;200.23;;;;;;;;;;5007792;28;20715;-47
2023/10/14 03:36:34;;;;;;;422.77;198.90;;;;;;;;;;5007988;28;20609;-47
2023/10/14 03:39:16;;;;;;;426.03;201.97;;;;;;;;;;5007672;28;20197;-47
2023/10/14 03:41:42;;;;;;;451.03;211.57;;;;;;;;;;5008566;28;20198;-47
2023/10/14 03:44:14;;;;;;;428.30;203.00;;;;;;;;;;5008134;28;20701;-47
2023/10/14 03:46:43;;;;;;;447.73;207.60;;;;;;;;;;5007936;28;20616;-48
2023/10/14 03:49:20;;;;;;;441.90;210.13;;;;;;;;;;5016677;28;20287;-47
2023/10/14 03:51:47;;;;;;;424.73;197.27;;;;;;;;;;5027609;28;20240;-46
2023/10/14 03:54:19;;;;;;;450.70;212.80;;;;;;;;;;5027427;28;20183;-47
2023/10/14 03:56:46;;;;;;;437.20;209.03;;;;;;;;;;5027630;28;20157;-47
2023/10/14 03:59:20;;;;;;;421.97;202.37;;;;;;;;;;5027522;28;20284;-46
2023/10/14 04:01:46;;;;;;;422.70;199.13;;;;;;;;;;5027486;28;20179;-46
2023/10/14 04:04:17;;;;;;;450.90;212.87;;;;;;;;;;5027200;28;20383;-46
2023/10/14 04:06:51;;;;;;;452.57;210.00;;;;;;;;;;5026901;28;20172;-46
2023/10/14 04:09:24;;;;;;;449.67;210.77;;;;;;;;;;5027066;28;20531;-46
2023/10/14 04:11:52;;;;;;;421.87;200.53;;;;;;;;;;5026829;28;20568;-46
2023/10/14 04:14:22;;;;;;;427.60;203.00;;;;;;;;;;5026902;28;20184;-46
2023/10/14 04:16:50;;;;;;;434.97;205.50;;;;;;;;;;5027738;28;20203;-46
2023/10/14 04:22:07;;;;;;;456.00;221.97;;;;;;;;;;5022005;28;20194;-79
2023/10/14 04:27:18;;;;;;;448.30;213.70;;;;;;;;;;5020792;28;20220;-79
2023/10/14 04:32:40;;;;;;;454.30;221.30;;;;;;;;;;5019955;28;20195;-80
2023/10/14 04:35:07;;;;;;;452.00;219.33;;;;;;;;;;5020313;28;20911;-80
2023/10/14 04:37:50;;;;;;;483.13;232.67;;;;;;;;;;5022390;28;20271;-80
2023/10/14 04:40:24;;;;;;;502.70;247.50;;;;;;;;;;5020188;28;20406;-79
2023/10/14 04:42:50;;;;;;;454.40;218.43;;;;;;;;;;5033748;28;20199;-79
2023/10/14 04:45:16;;;;;;;519.33;250.10;;;;;;;;;;5017823;28;20186;-80
2023/10/14 04:47:47;;;;;;;481.70;231.37;;;;;;;;;;5019187;28;20184;-79
2023/10/14 04:50:14;;;;;;;485.40;232.77;;;;;;;;;;5033981;28;20207;-80
2023/10/14 04:52:48;;;;;;;451.97;211.10;;;;;;;;;;5015287;28;20245;-79
2023/10/14 05:00:41;;;;;;;487.63;233.43;;;;;;;;;;5022772;28;20692;-78
2023/10/14 05:03:09;;;;;;;474.37;219.93;;;;;;;;;;5019008;28;20203;-77
2023/10/14 05:05:37;;;;;;;471.13;219.33;;;;;;;;;;5017978;28;20218;-79
2023/10/14 05:08:04;;;;;;;492.40;234.53;;;;;;;;;;5023012;28;20213;-80
2023/10/14 05:10:30;;;;;;;493.77;235.07;;;;;;;;;;5018353;28;20302;-80
2023/10/14 05:12:56;;;;;;;447.53;218.17;;;;;;;;;;5015835;28;20261;-79
2023/10/14 05:15:26;;;;;;;473.10;224.30;;;;;;;;;;5020316;28;20192;-80
2023/10/14 05:17:53;;;;;;;462.43;219.23;;;;;;;;;;5022599;28;20931;-79
2023/10/14 05:20:54;;;;;;;458.23;220.30;;;;;;;;;;5020102;28;20192;-79
2023/10/14 05:23:24;;;;;;;501.97;245.57;;;;;;;;;;5019480;28;20208;-81
2023/10/14 05:25:56;;;;;;;465.60;221.67;;;;;;;;;;5029851;28;20258;-80
2023/10/14 05:28:29;;;;;;;457.93;221.17;;;;;;;;;;5026325;28;20238;-80
2023/10/14 05:30:55;;;;;;;466.60;229.00;;;;;;;;;;5030404;28;20733;-82
2023/10/14 05:33:21;;;;;;;504.60;242.10;;;;;;;;;;5040303;28;20222;-82
2023/10/14 05:35:48;;;;;;;466.97;225.00;;;;;;;;;;5035077;28;20200;-81
2023/10/14 05:38:17;;;;;;;478.77;232.13;;;;;;;;;;5019271;28;20650;-80
2023/10/14 05:40:43;;;;;;;446.67;209.73;;;;;;;;;;5024108;28;20177;-78
2023/10/14 05:43:09;;;;;;;464.77;220.93;;;;;;;;;;5018733;28;20750;-76
2023/10/14 05:45:36;;;;;;;498.60;239.50;;;;;;;;;;4997543;28;20282;-76
2023/10/14 05:48:09;;;;;;;502.60;243.67;;;;;;;;;;5034550;28;20207;-77
2023/10/14 05:50:35;;;;;;;448.63;220.53;;;;;;;;;;5021019;28;20200;-77
2023/10/14 05:53:02;;;;;;;472.73;229.83;;;;;;;;;;5019458;28;20273;-76
2023/10/14 05:55:31;;;;;;;431.50;204.07;;;;;;;;;;5013984;28;20199;-76
2023/10/14 05:58:00;;;;;;;488.73;240.63;;;;;;;;;;5013644;28;20678;-76
2023/10/14 06:00:27;;;;;;;509.97;245.57;;;;;;;;;;5018063;28;20188;-76
2023/10/14 06:02:57;;;;;;;491.23;246.13;;;;;;;;;;5027199;22;20240;-78
2023/10/14 06:05:24;;;;;;;520.67;258.83;;;;;;;;;;5037175;28;20174;-77
2023/10/14 06:07:50;;;;;;;468.20;226.17;;;;;;;;;;5036657;28;20183;-77
2023/10/14 06:10:22;;;;;;;461.27;222.53;;;;;;;;;;5038399;28;20506;-77
2023/10/14 06:12:50;;;;;;;462.30;225.63;;;;;;;;;;5034562;28;20203;-76
2023/10/14 06:15:17;;;;;;;498.47;238.60;;;;;;;;;;5048433;28;20217;-76
2023/10/14 06:17:47;;;;;;;493.57;240.07;;;;;;;;;;5034450;28;20194;-76
2023/10/14 06:20:14;;;;;;;529.33;254.80;;;;;;;;;;5032398;28;20668;-77
2023/10/14 06:22:41;;;;;;;469.40;225.30;;;;;;;;;;5037293;28;20207;-77
2023/10/14 06:25:07;;;;;;;477.40;226.53;;;;;;;;;;5036875;28;20532;-76
2023/10/14 06:27:33;;;;;;;490.53;235.07;;;;;;;;;;5036118;28;20181;-75
2023/10/14 06:29:59;;;;;;;500.07;235.63;;;;;;;;;;5035068;28;20199;-75
2023/10/14 06:32:25;;;;;;;490.13;234.27;;;;;;;;;;5037233;28;20412;-78
2023/10/14 06:35:02;;;;;;;520.90;245.03;;;;;;;;;;5029813;28;20720;-77
2023/10/14 06:37:28;;;;;;;490.33;229.83;;;;;;;;;;5059416;28;20200;-76
2023/10/14 06:39:56;;;;;;;473.17;215.30;;;;;;;;;;5035269;28;20191;-75
2023/10/14 06:42:22;;;;;;;523.53;251.97;;;;;;;;;;5031096;28;20191;-75
2023/10/14 06:44:51;;;;;;;445.77;208.63;;;;;;;;;;5034026;28;20195;-77
2023/10/14 06:47:18;;;;;;;479.13;228.43;;;;;;;;;;5031227;28;20245;-77
2023/10/14 06:49:44;;;;;;;485.43;228.83;;;;;;;;;;5036670;28;20199;-76
2023/10/14 06:52:14;;;;;;;456.63;209.90;;;;;;;;;;5032689;28;20214;-75
2023/10/14 06:54:41;;;;;;;477.10;223.20;;;;;;;;;;5026975;28;20190;-75
2023/10/14 06:57:10;;;;;;;457.47;209.50;;;;;;;;;;5028046;28;20303;-75
2023/10/14 06:59:37;;;;;;;423.03;190.97;;;;;;;;;;5029922;28;20190;-76
2023/10/14 07:02:03;;;;;;;429.03;195.43;;;;;;;;;;5026928;28;20191;-76
2023/10/14 07:04:29;;;;;;;479.67;218.33;;;;;;;;;;5029849;28;20995;-74
2023/10/14 07:06:58;;;;;;;449.30;204.13;;;;;;;;;;5030356;28;20180;-79
2023/10/14 07:09:27;;;;;;;493.00;229.33;;;;;;;;;;5031118;28;20218;-80
2023/10/14 07:11:56;;;;;;;471.83;213.50;;;;;;;;;;5033333;28;20249;-80
2023/10/14 07:14:23;;;;;;;472.23;215.93;;;;;;;;;;5029693;28;20196;-79
2023/10/14 07:16:50;;;;;;;468.70;214.57;;;;;;;;;;5032239;28;20206;-79
2023/10/14 07:19:17;;;;;;;481.67;216.53;;;;;;;;;;5027370;28;20187;-81
2023/10/14 07:21:43;;;;;;;446.23;195.97;;;;;;;;;;5027328;28;20972;-79
2023/10/14 07:24:09;;;;;;;467.60;206.77;;;;;;;;;;5031759;28;20585;-79
2023/10/14 07:26:39;;;;;;;457.77;199.10;;;;;;;;;;5026183;28;20906;-79
2023/10/14 07:29:05;;;;;;;431.30;185.63;;;;;;;;;;5027916;28;20622;-80
2023/10/14 07:31:31;;;;;;;470.63;204.20;;;;;;;;;;5028390;28;21019;-79
2023/10/14 07:34:08;;;;;;;469.30;205.77;;;;;;;;;;5028180;28;20210;-75
2023/10/14 07:36:34;;;;;;;493.10;228.33;;;;;;;;;;5028969;28;20184;-79
2023/10/14 07:41:45;;;;;;;424.43;183.83;;;;;;;;;;5032786;28;20756;-74
2023/10/14 07:44:22;;;;;;;451.93;196.03;;;;;;;;;;5033431;28;20258;-83
2023/10/14 07:46:49;;;;;;;438.17;187.70;;;;;;;;;;5032546;28;20207;-78
2023/10/14 07:49:15;;;;;;;450.80;197.00;;;;;;;;;;5031710;28;20192;-78
2023/10/14 07:51:42;;;;;;;494.33;218.27;;;;;;;;;;5030325;28;20198;-77
2023/10/14 07:54:08;;;;;;;422.50;181.80;;;;;;;;;;5032017;28;20196;-78
2023/10/14 07:56:34;;;;;;;438.37;187.00;;;;;;;;;;5030841;28;20314;-80
2023/10/14 07:59:01;;;;;;;432.07;186.93;;;;;;;;;;5033644;28;20187;-77
2023/10/14 08:01:27;;;;;;;465.60;207.40;;;;;;;;;;5032803;28;20184;-78
2023/10/14 08:03:56;;;;;;;443.67;199.77;;;;;;;;;;5034641;28;21700;-77
2023/10/14 08:06:22;;;;;;;459.20;197.23;;;;;;;;;;5054191;28;20187;-78
2023/10/14 08:08:50;;;;;;;456.27;198.53;;;;;;;;;;5052235;28;20194;-80
2023/10/14 08:11:16;;;;;;;458.03;198.17;;;;;;;;;;5047872;28;20753;-76
2023/10/14 08:13:43;;;;;;;460.80;203.53;;;;;;;;;;5051398;28;20226;-79
2023/10/14 08:16:09;;;;;;;442.47;188.80;;;;;;;;;;5051543;28;20285;-79
2023/10/14 08:18:36;;;;;;;433.60;190.13;;;;;;;;;;5052756;28;21670;-80
2023/10/14 08:21:03;;;;;;;454.87;196.13;;;;;;;;;;5054618;28;20183;-80
2023/10/14 08:23:29;;;;;;;433.00;192.77;;;;;;;;;;5049357;28;20215;-64
2023/10/14 08:25:56;;;;;;;460.03;195.73;;;;;;;;;;5047658;28;20793;-64
2023/10/14 08:28:23;;;;;;;508.97;225.47;;;;;;;;;;5040197;28;20535;-64
2023/10/14 08:30:51;;;;;;;504.20;219.60;;;;;;;;;;5039562;28;20211;-64
2023/10/14 08:33:18;;;;;;;437.40;184.13;;;;;;;;;;5041266;28;20204;-66
2023/10/14 08:35:44;;;;;;;456.60;197.03;;;;;;;;;;5039075;28;20197;-64
2023/10/14 08:38:12;;;;;;;468.13;206.33;;;;;;;;;;5035636;28;22327;-69
2023/10/14 08:40:39;;;;;;;443.97;191.20;;;;;;;;;;5034480;28;20237;-67
2023/10/14 08:43:06;;;;;;;451.20;197.30;;;;;;;;;;5038983;28;20735;-73
2023/10/14 08:45:36;;;;;;;488.73;215.03;;;;;;;;;;5045994;28;20187;-76
2023/10/14 08:48:03;;;;;;;468.90;196.43;;;;;;;;;;5047702;28;20693;-76
2023/10/14 08:50:29;;;;;;;490.40;208.40;;;;;;;;;;5051175;28;20280;-77
2023/10/14 08:52:56;;;;;;;459.93;197.53;;;;;;;;;;5052375;28;20195;-77
2023/10/14 08:55:22;;;;;;;467.90;204.13;;;;;;;;;;5049470;28;20186;-76
2023/10/14 08:57:49;;;;;;;458.30;197.33;;;;;;;;;;5051256;28;20175;-75
2023/10/14 09:00:19;;;;;;;451.40;195.80;;;;;;;;;;5055511;28;20655;-75
2023/10/14 09:02:49;;;;;;;498.77;219.73;;;;;;;;;;5050434;28;20244;-78
2023/10/14 09:05:16;;;;;;;480.57;204.77;;;;;;;;;;5051391;28;20595;-76
2023/10/14 09:07:43;;;;;;;465.73;197.87;;;;;;;;;;5045831;28;20491;-77
2023/10/14 09:10:09;;;;;;;475.70;204.37;;;;;;;;;;5052755;28;20220;-75
2023/10/14 09:12:36;;;;;;;524.40;231.97;;;;;;;;;;5049328;28;20207;-79
2023/10/14 09:15:02;;;;;;;456.37;197.47;;;;;;;;;;5053346;28;20580;-75
2023/10/14 09:17:28;;;;;;;485.63;212.47;;;;;;;;;;5053962;28;20191;-77
2023/10/14 09:19:55;;;;;;;481.40;212.43;;;;;;;;;;5045454;28;20217;-79
2023/10/14 09:22:23;;;;;;;523.23;232.43;;;;;;;;;;5055110;28;20192;-79
2023/10/14 09:24:50;;;;;;;481.57;209.73;;;;;;;;;;5040888;28;20194;-76
2023/10/14 09:27:17;;;;;;;450.47;191.47;;;;;;;;;;5049523;28;20207;-78
2023/10/14 09:29:43;;;;;;;481.17;211.57;;;;;;;;;;5038547;28;20199;-75
2023/10/14 09:32:09;;;;;;;465.63;208.43;;;;;;;;;;5044579;28;20190;-75
2023/10/14 09:34:35;;;;;;;469.97;209.97;;;;;;;;;;5039712;28;21199;-74
2023/10/14 09:37:10;;;;;;;455.03;201.23;;;;;;;;;;5041847;28;20190;-74
2023/10/14 09:39:39;;;;;;;511.77;236.53;;;;;;;;;;5044723;28;20220;-76
2023/10/14 09:42:06;;;;;;;456.80;203.23;;;;;;;;;;5050021;28;20191;-74
2023/10/14 09:44:33;;;;;;;502.23;223.30;;;;;;;;;;5044793;28;20234;-76
2023/10/14 09:47:00;;;;;;;447.37;190.90;;;;;;;;;;5040021;28;20191;-75
2023/10/14 09:49:26;;;;;;;459.57;201.23;;;;;;;;;;5036547;28;20218;-75
2023/10/14 09:51:53;;;;;;;431.57;189.23;;;;;;;;;;5029283;28;20212;-75
2023/10/14 09:54:21;;;;;;;455.70;197.47;;;;;;;;;;5029623;28;20658;-75
2023/10/14 09:56:50;;;;;;;424.83;183.13;;;;;;;;;;5036844;28;20610;-75
2023/10/14 09:59:16;;;;;;;450.80;196.33;;;;;;;;;;5033152;28;20212;-73
2023/10/14 10:01:43;;;;;;;477.70;214.03;;;;;;;;;;5051757;28;20184;-73
2023/10/14 10:04:12;;;;;;;419.93;183.63;;;;;;;;;;5062877;28;20759;-76
2023/10/14 10:06:52;;;;;;;474.53;207.77;;;;;;;;;;5062084;28;20171;-74
2023/10/14 10:09:19;;;;;;;417.53;178.63;;;;;;;;;;5061961;28;20279;-76
2023/10/14 10:11:46;;;;;;;426.83;188.30;;;;;;;;;;5061661;28;20222;-76
2023/10/14 10:14:16;;;;;;;415.83;182.10;;;;;;;;;;5060834;28;20209;-75
2023/10/14 10:16:42;;;;;;;444.17;190.17;;;;;;;;;;5051323;28;20215;-70
2023/10/14 10:19:09;;;;;;;428.53;186.80;;;;;;;;;;5063466;28;20667;-71
2023/10/14 10:21:40;;;;;;;456.73;204.97;;;;;;;;;;5054762;28;20191;-71
2023/10/14 10:24:19;;;;;;;487.00;222.13;;;;;;;;;;5050649;28;20198;-72
2023/10/14 10:27:04;;;;;;;430.37;185.77;;;;;;;;;;5038125;28;20183;-71
2023/10/14 10:29:33;;;;;;;477.10;214.30;;;;;;;;;;5036441;28;21674;-72
2023/10/14 10:32:06;;;;;;;450.63;198.00;;;;;;;;;;5040422;28;20191;-73
2023/10/14 10:34:33;;;;;;;489.67;221.23;;;;;;;;;;5034722;28;20206;-73
2023/10/14 10:37:00;;;;;;;441.50;194.40;;;;;;;;;;5038465;28;20271;-72
2023/10/14 10:39:40;;;;;;;462.53;210.50;;;;;;;;;;5037568;28;20188;-72
2023/10/14 10:42:10;;;;;;;464.03;203.63;;;;;;;;;;5036034;28;21176;-72
2023/10/14 10:44:43;;;;;;;423.77;188.50;;;;;;;;;;5036823;28;20701;-72
2023/10/14 10:47:15;;;;;;;435.47;201.40;;;;;;;;;;5037995;28;20191;-73
2023/10/14 10:50:15;;;;;;;463.37;216.93;;;;;;;;;;5039242;28;21565;-73
2023/10/14 10:55:10;;;;;;;514.03;241.23;;;;;;;;;;4992037;28;20204;-51
2023/10/14 10:57:36;;;;;;;580.47;283.53;;;;;;;;;;4992276;28;20965;-50
2023/10/14 11:00:09;;;;;;;476.40;217.93;;;;;;;;;;4994033;28;20306;-50
2023/10/14 11:02:35;;;;;;;533.10;252.63;;;;;;;;;;4994007;28;20219;-50
2023/10/14 11:05:03;;;;;;;539.87;255.53;;;;;;;;;;4997293;28;20288;-50
2023/10/14 11:07:32;;;;;;;478.87;216.77;;;;;;;;;;4997200;28;20230;-52
2023/10/14 11:10:00;;;;;;;451.90;203.67;;;;;;;;;;5007181;28;20215;-51
2023/10/14 11:12:26;;;;;;;577.67;282.33;;;;;;;;;;4997638;28;20230;-50
2023/10/14 11:14:52;;;;;;;500.30;226.57;;;;;;;;;;4995095;28;20746;-50
2023/10/14 11:17:20;;;;;;;510.33;239.70;;;;;;;;;;4996967;28;20791;-50
2023/10/14 11:19:46;;;;;;;481.57;216.17;;;;;;;;;;5002558;28;20693;-51
2023/10/14 11:22:12;;;;;;;409.70;182.07;;;;;;;;;;4992814;28;20196;-50
2023/10/14 11:24:42;;;;;;;454.27;206.60;;;;;;;;;;5002572;28;20189;-50
2023/10/14 11:27:08;;;;;;;453.53;200.43;;;;;;;;;;5001012;28;20192;-50
2023/10/14 11:29:34;;;;;;;469.97;215.77;;;;;;;;;;4996970;28;20235;-50
2023/10/14 11:32:02;;;;;;;633.60;315.27;;;;;;;;;;4994985;28;20238;-50
2023/10/14 11:34:35;;;;;;;534.77;250.23;;;;;;;;;;5008381;28;20192;-51
2023/10/14 11:37:01;;;;;;;452.93;207.73;;;;;;;;;;5005196;28;20262;-50
2023/10/14 11:39:28;;;;;;;517.10;242.13;;;;;;;;;;4994689;28;20212;-51
2023/10/14 11:41:54;;;;;;;553.40;262.23;;;;;;;;;;4992327;28;20270;-50
2023/10/14 11:44:20;;;;;;;470.20;215.67;;;;;;;;;;4994649;28;20275;-51
2023/10/14 11:46:47;;;;;;;525.30;247.70;;;;;;;;;;4986928;28;20234;-51
2023/10/14 11:49:13;;;;;;;527.13;248.03;;;;;;;;;;4993269;28;23573;-51
2023/10/14 11:51:43;;;;;;;546.47;261.27;;;;;;;;;;4997322;28;20238;-51
2023/10/14 11:54:12;;;;;;;479.80;215.10;;;;;;;;;;5002639;28;20195;-50
2023/10/14 11:56:40;;;;;;;550.70;265.03;;;;;;;;;;4992166;28;20434;-51
2023/10/14 11:59:06;;;;;;;494.53;233.70;;;;;;;;;;4995498;28;20367;-51
2023/10/14 12:01:34;;;;;;;448.70;210.10;;;;;;;;;;4996822;28;20187;-51
2023/10/14 12:04:00;;;;;;;540.27;258.57;;;;;;;;;;4991983;28;20260;-51
2023/10/14 12:06:28;;;;;;;497.87;240.80;;;;;;;;;;4995568;28;20184;-51
2023/10/14 12:08:54;;;;;;;557.53;271.10;;;;;;;;;;4993349;28;20204;-51
2023/10/14 12:11:20;;;;;;;519.70;250.20;;;;;;;;;;5001191;28;20211;-51
2023/10/14 12:13:48;;;;;;;617.67;318.00;;;;;;;;;;4990269;28;20164;-51
2023/10/14 12:16:14;;;;;;;507.40;241.17;;;;;;;;;;4998156;28;20266;-51
2023/10/14 12:18:42;;;;;;;519.40;246.80;;;;;;;;;;4996740;28;20203;-50
2023/10/14 12:21:08;;;;;;;490.87;234.80;;;;;;;;;;4989716;28;20562;-51
2023/10/14 12:23:34;;;;;;;473.47;227.93;;;;;;;;;;5003779;28;20304;-51
2023/10/14 12:26:01;;;;;;;511.83;252.97;;;;;;;;;;4998766;28;20187;-51
2023/10/14 12:28:32;;;;;;;471.83;223.37;;;;;;;;;;5002280;28;20215;-51
2023/10/14 12:30:59;;;;;;;490.43;238.80;;;;;;;;;;5002472;28;20369;-51
2023/10/14 12:33:31;;;;;;;494.33;230.90;;;;;;;;;;4999771;28;20279;-50
2023/10/14 12:35:57;;;;;;;533.27;249.20;;;;;;;;;;4994830;28;20948;-51
2023/10/14 12:38:26;;;;;;;485.57;226.87;;;;;;;;;;4988902;28;20522;-50
2023/10/14 12:40:53;;;;;;;599.93;294.23;;;;;;;;;;4995976;28;20678;-50
2023/10/14 12:43:28;;;;;;;478.03;224.87;;;;;;;;;;5004072;28;20187;-51
2023/10/14 12:46:09;;;;;;;570.03;274.00;;;;;;;;;;4989820;28;20237;-51
2023/10/14 12:48:35;;;;;;;546.13;267.30;;;;;;;;;;5001233;28;20188;-50
2023/10/14 12:51:01;;;;;;;394.93;198.83;;;;;;;;;;5009331;28;20204;-50
2023/10/14 12:53:27;;;;;;;372.97;182.20;;;;;;;;;;5012407;28;20201;-50
2023/10/14 12:55:53;;;;;;;421.00;209.97;;;;;;;;;;5011629;28;20207;-51
2023/10/14 12:58:19;;;;;;;343.20;169.83;;;;;;;;;;5008598;28;20219;-51
2023/10/14 13:00:45;;;;;;;408.37;202.40;;;;;;;;;;5007079;28;20196;-50
2023/10/14 13:03:11;;;;;;;390.30;197.03;;;;;;;;;;5011234;28;20180;-51
2023/10/14 13:05:38;;;;;;;372.63;188.70;;;;;;;;;;5005716;28;20682;-51
2023/10/14 13:08:04;;;;;;;381.43;193.77;;;;;;;;;;5010751;28;20288;-50
2023/10/14 13:10:32;;;;;;;353.73;184.07;;;;;;;;;;5012154;28;20273;-51
2023/10/14 13:12:58;;;;;;;433.83;227.70;;;;;;;;;;5006045;28;20222;-51
2023/10/14 13:15:29;;;;;;;408.80;223.20;;;;;;;;;;5005449;28;20271;-51
2023/10/14 13:17:57;;;;;;;435.13;240.10;;;;;;;;;;5012391;28;20188;-50
2023/10/14 13:20:27;;;;;;;370.97;207.43;;;;;;;;;;5007525;28;20227;-50
2023/10/14 13:22:58;;;;;;;425.63;237.00;;;;;;;;;;5008341;28;20896;-51
2023/10/14 13:25:24;;;;;;;407.37;233.20;;;;;;;;;;5006667;28;20232;-51
2023/10/14 13:27:51;;;;;;;416.60;240.03;;;;;;;;;;5007435;28;20188;-51
2023/10/14 13:30:18;;;;;;;382.60;220.67;;;;;;;;;;5005483;28;20263;-50
2023/10/14 13:32:44;;;;;;;368.30;215.27;;;;;;;;;;5010898;28;20213;-51
2023/10/14 13:35:10;;;;;;;376.60;211.30;;;;;;;;;;5005626;28;20615;-50
2023/10/14 13:37:40;;;;;;;377.10;215.23;;;;;;;;;;5007081;28;20536;-50
2023/10/14 13:40:09;;;;;;;372.07;206.60;;;;;;;;;;5009928;28;20226;-50
2023/10/14 13:42:36;;;;;;;361.23;198.00;;;;;;;;;;5012219;28;20185;-51
2023/10/14 13:45:04;;;;;;;425.20;235.47;;;;;;;;;;5006211;28;20611;-50
2023/10/14 13:47:30;;;;;;;371.27;206.30;;;;;;;;;;5016554;28;20250;-51
2023/10/14 13:49:58;;;;;;;618.27;333.73;;;;;;;;;;4989887;28;20219;-50
2023/10/14 13:52:24;;;;;;;536.93;279.90;;;;;;;;;;4995340;28;20254;-50
2023/10/14 13:54:50;;;;;;;524.20;264.10;;;;;;;;;;4998547;28;20247;-51
2023/10/14 13:57:19;;;;;;;489.60;250.23;;;;;;;;;;5004082;28;20195;-49
2023/10/14 13:59:45;;;;;;;512.63;262.30;;;;;;;;;;4989125;28;20561;-50
2023/10/14 14:02:11;;;;;;;490.43;254.50;;;;;;;;;;4998448;28;20188;-50
2023/10/14 14:04:37;;;;;;;473.23;248.07;;;;;;;;;;5000738;28;20570;-50
2023/10/14 14:07:05;;;;;;;547.67;297.27;;;;;;;;;;4993691;28;20191;-50
2023/10/14 14:09:31;;;;;;;539.97;284.10;;;;;;;;;;4999025;28;20828;-50
2023/10/14 14:11:57;;;;;;;612.90;335.67;;;;;;;;;;4979153;28;20189;-50
2023/10/14 14:14:24;;;;;;;536.40;280.13;;;;;;;;;;5001889;28;20631;-50
2023/10/14 14:16:50;;;;;;;558.50;288.60;;;;;;;;;;4993953;28;20188;-50
2023/10/14 14:19:18;;;;;;;500.37;263.30;;;;;;;;;;4996301;28;20203;-50
2023/10/14 14:21:45;;;;;;;516.47;275.13;;;;;;;;;;4990727;28;20678;-50
2023/10/14 14:24:11;;;;;;;502.20;266.40;;;;;;;;;;4995725;28;20199;-49
2023/10/14 14:26:37;;;;;;;585.27;321.33;;;;;;;;;;4990836;28;20642;-50
2023/10/14 14:29:03;;;;;;;613.00;329.27;;;;;;;;;;4983913;28;20277;-50